Terminal Aerodrome Forecast
Issued by NWS Twin Cities, MN

Home | Current Version | Previous Version | Graphics & Text | Print | Product List | Glossary On
Versions: 1 2 3 4 5 6 7 8 9 10 11 12 13 14 15 16 17 18 19 20 21 22 23 24 25 26 27 28 29 30
858
FTUS43 KMPX 271120
TAFMSP
TAF
KMSP 271120Z 2712/2818 13007KT P6SM VCSH SCT040 OVC080
     FM271300 10007KT 6SM -SHRA SCT025 OVC050
      TEMPO 2713/2717 -TSRA OVC025CB
     FM271900 14007KT P6SM VCSH SCT030 BKN080
     FM272300 10006KT P6SM SCT025 OVC150
     FM280800 07003KT 6SM BR SCT015 OVC040
     FM281100 06004KT 4SM -SHRA BR SCT015 OVC030=

USA.gov is the U.S. government's official web portal to all federal, state and local government web resources and services.